Time;durP1;ratioP1;P1;durP2;ratioP2;P2;SDS_P1;SDS_P2;PMS_P1;PMS_P2;Temp;Humidity;BMP_temperature;BMP_pressure;BME280_temperature;BME280_humidity;BME280_pressure;Samples;Min_cycle;Max_cycle;Signal;HPM_P1;HPM_P2
2022/11/12 00:00:58;;;;;;;17.00;11.87;;;5.60;99.90;;;;;;4993492;28;20266;-91
2022/11/12 00:03:25;;;;;;;28.27;19.37;;;5.50;99.90;;;;;;5001604;28;20278;-90
2022/11/12 00:05:52;;;;;;;42.87;29.47;;;5.40;99.90;;;;;;5011506;28;20365;-90
2022/11/12 00:08:19;;;;;;;38.97;27.90;;;5.40;99.90;;;;;;5009597;28;20207;-90
2022/11/12 00:11:06;;;;;;;19.63;14.53;;;5.50;99.90;;;;;;5012413;28;20211;-90
2022/11/12 00:13:34;;;;;;;14.10;9.57;;;5.40;99.90;;;;;;5003979;28;20660;-90
2022/11/12 00:16:01;;;;;;;13.47;9.50;;;5.20;99.90;;;;;;5011584;28;20649;-90
2022/11/12 00:18:28;;;;;;;15.37;10.40;;;5.00;99.90;;;;;;4998731;28;20200;-89
2022/11/12 00:20:55;;;;;;;26.33;18.00;;;4.80;99.90;;;;;;4997577;28;20295;-89
2022/11/12 00:23:22;;;;;;;30.87;19.90;;;4.90;99.90;;;;;;5012802;28;20294;-90
2022/11/12 00:25:58;;;;;;;18.93;13.67;;;5.10;99.90;;;;;;5008796;28;20645;-90
2022/11/12 00:28:28;;;;;;;22.43;15.97;;;5.10;99.90;;;;;;5006538;28;20350;-91
2022/11/12 00:30:56;;;;;;;17.17;11.70;;;5.30;99.90;;;;;;5011298;28;20204;-90
2022/11/12 00:33:28;;;;;;;21.93;13.83;;;5.40;99.90;;;;;;5007514;28;20290;-89
2022/11/12 00:35:59;;;;;;;13.03;9.37;;;5.50;99.90;;;;;;5009114;28;20215;-90
2022/11/12 00:38:31;;;;;;;20.47;8.67;;;5.40;99.90;;;;;;5009401;28;20283;-90
2022/11/12 00:40:59;;;;;;;21.80;15.33;;;5.10;99.60;;;;;;5010271;28;20208;-90
2022/11/12 00:43:26;;;;;;;11.63;8.33;;;4.90;99.90;;;;;;5009603;28;20241;-91
2022/11/12 00:46:00;;;;;;;21.53;13.87;;;4.80;99.90;;;;;;5010510;28;20302;-89
2022/11/12 00:48:27;;;;;;;11.60;8.40;;;4.60;99.90;;;;;;5005674;28;20238;-90
2022/11/12 00:51:00;;;;;;;13.70;8.57;;;4.60;99.90;;;;;;5006396;28;20207;-90
2022/11/12 00:53:27;;;;;;;15.37;8.20;;;4.60;99.90;;;;;;5009295;28;20284;-90
2022/11/12 00:55:54;;;;;;;11.70;8.37;;;4.60;99.90;;;;;;5009145;28;20211;-89
2022/11/12 00:58:20;;;;;;;12.33;8.40;;;4.60;99.90;;;;;;5011259;28;20218;-90
2022/11/12 01:00:47;;;;;;;16.13;10.27;;;4.70;99.90;;;;;;5006269;28;20290;-90
2022/11/12 01:03:16;;;;;;;19.20;12.53;;;4.80;99.90;;;;;;5010371;28;20295;-90
2022/11/12 01:05:42;;;;;;;19.10;13.37;;;4.90;99.90;;;;;;5010156;28;20225;-90
2022/11/12 01:08:16;;;;;;;18.07;12.80;;;5.10;99.90;;;;;;4998986;28;20641;-90
2022/11/12 01:10:43;;;;;;;19.87;13.00;;;5.20;99.90;;;;;;5007565;28;20230;-91
2022/11/12 01:13:10;;;;;;;16.90;12.93;;;5.40;99.90;;;;;;4992518;28;20294;-90
2022/11/12 01:15:41;;;;;;;17.37;12.73;;;5.50;99.90;;;;;;5009735;28;20856;-90
2022/11/12 01:18:08;;;;;;;17.17;12.23;;;5.60;99.90;;;;;;5011258;28;20206;-89
2022/11/12 01:20:38;;;;;;;18.83;12.57;;;5.70;99.90;;;;;;5001933;28;20207;-90
2022/11/12 01:23:06;;;;;;;14.50;10.40;;;5.80;99.90;;;;;;5009723;28;20211;-90
2022/11/12 01:25:32;;;;;;;13.47;10.70;;;5.80;99.90;;;;;;5006632;28;20209;-90
2022/11/12 01:27:59;;;;;;;12.00;8.60;;;5.70;99.90;;;;;;5009797;28;20301;-90
2022/11/12 01:30:26;;;;;;;15.40;11.30;;;5.60;99.90;;;;;;5008840;28;20315;-90
2022/11/12 01:32:53;;;;;;;17.97;11.87;;;5.60;99.90;;;;;;5005809;28;20210;-90
2022/11/12 01:35:20;;;;;;;17.13;12.13;;;5.80;99.90;;;;;;5008734;28;20317;-89
2022/11/12 01:37:48;;;;;;;15.07;10.30;;;5.90;99.90;;;;;;5005364;28;20243;-91
2022/11/12 01:40:16;;;;;;;13.80;10.43;;;6.00;99.90;;;;;;5007438;28;20286;-89
2022/11/12 01:42:43;;;;;;;16.33;10.73;;;6.00;99.90;;;;;;5005059;28;20282;-90
2022/11/12 01:45:15;;;;;;;9.80;8.10;;;6.10;99.90;;;;;;5010327;28;20199;-90
2022/11/12 01:47:44;;;;;;;11.77;8.83;;;6.00;99.60;;;;;;5005568;28;20598;-90
2022/11/12 01:50:17;;;;;;;14.00;9.90;;;6.00;99.70;;;;;;5010134;28;20227;-90
2022/11/12 01:52:49;;;;;;;12.50;9.50;;;6.00;99.90;;;;;;5002332;28;20202;-90
2022/11/12 01:55:25;;;;;;;12.13;8.63;;;6.00;99.90;;;;;;5005401;28;20230;-90
2022/11/12 01:57:58;;;;;;;10.07;7.90;;;6.10;99.90;;;;;;5007703;28;20209;-90
2022/11/12 02:00:25;;;;;;;10.57;7.93;;;5.90;99.30;;;;;;5005032;28;20651;-90
2022/11/12 02:02:55;;;;;;;12.03;8.43;;;5.90;99.90;;;;;;5006445;28;20218;-90
2022/11/12 02:05:23;;;;;;;11.37;8.10;;;5.70;99.80;;;;;;5009572;28;20293;-90
2022/11/12 02:07:53;;;;;;;8.37;7.47;;;5.70;99.90;;;;;;5005968;28;20227;-89
2022/11/12 02:10:23;;;;;;;13.07;8.67;;;5.50;99.90;;;;;;5005896;28;20738;-89
2022/11/12 02:15:38;;;;;;;12.40;7.50;;;5.60;99.90;;;;;;5003162;28;20202;-90
2022/11/12 02:18:06;;;;;;;12.10;8.23;;;5.50;99.90;;;;;;4998388;28;20210;-89
2022/11/12 02:20:33;;;;;;;12.00;7.20;;;5.40;99.90;;;;;;5009383;28;20199;-89
2022/11/12 02:23:02;;;;;;;11.20;8.30;;;5.30;99.90;;;;;;5002777;28;20294;-90
2022/11/12 02:25:29;;;;;;;14.70;8.40;;;5.30;99.90;;;;;;5000440;28;20617;-90
2022/11/12 02:27:58;;;;;;;12.80;8.90;;;5.30;99.90;;;;;;5005399;28;20250;-89
2022/11/12 02:30:33;;;;;;;12.00;7.87;;;5.60;99.90;;;;;;5009294;28;20294;-89
2022/11/12 02:33:00;;;;;;;12.80;8.03;;;5.70;99.90;;;;;;5006100;28;20696;-90
2022/11/12 02:35:27;;;;;;;10.80;7.40;;;5.70;99.90;;;;;;5007679;28;20314;-90
2022/11/12 02:37:54;;;;;;;12.17;7.90;;;5.60;99.90;;;;;;5008028;28;20203;-90
2022/11/12 02:40:23;;;;;;;10.53;7.83;;;5.60;99.90;;;;;;5009876;28;20215;-90
2022/11/12 02:42:50;;;;;;;11.43;7.93;;;5.60;99.90;;;;;;5007899;28;20208;-89
2022/11/12 02:45:17;;;;;;;10.60;8.43;;;5.80;99.90;;;;;;5008181;28;20298;-89
2022/11/12 02:47:44;;;;;;;12.50;7.83;;;6.00;99.90;;;;;;5009593;28;20237;-90
2022/11/12 02:50:11;;;;;;;12.03;7.67;;;6.00;99.90;;;;;;5010051;28;20305;-90
2022/11/12 02:52:39;;;;;;;13.80;8.10;;;5.90;99.90;;;;;;5005881;28;21299;-90
2022/11/12 02:55:07;;;;;;;12.90;7.83;;;6.00;99.90;;;;;;4999791;28;20208;-90
2022/11/12 02:57:37;;;;;;;10.33;7.63;;;6.00;99.90;;;;;;5006853;28;20230;-90
2022/11/12 03:00:04;;;;;;;9.80;7.50;;;6.10;99.90;;;;;;5005069;28;20572;-90
2022/11/12 03:02:31;;;;;;;9.53;7.40;;;6.10;99.90;;;;;;5009053;28;20264;-89
2022/11/12 03:04:58;;;;;;;9.17;7.20;;;5.90;99.90;;;;;;5003906;28;20207;-90
2022/11/12 03:07:25;;;;;;;9.10;7.30;;;5.80;99.90;;;;;;5006209;28;20710;-90
2022/11/12 03:09:52;;;;;;;10.83;7.60;;;5.70;99.90;;;;;;5008590;28;20648;-91
2022/11/12 03:12:22;;;;;;;11.70;7.70;;;5.60;99.90;;;;;;5012010;28;20282;-90
2022/11/12 03:14:51;;;;;;;9.83;6.90;;;5.50;99.90;;;;;;5006630;28;20295;-89
2022/11/12 03:17:22;;;;;;;9.63;7.73;;;5.30;99.90;;;;;;5009765;28;20727;-90
2022/11/12 03:19:49;;;;;;;10.77;7.50;;;5.40;99.90;;;;;;5016093;28;20286;-90
2022/11/12 03:22:16;;;;;;;9.30;6.97;;;5.50;99.90;;;;;;5023593;28;20266;-90
2022/11/12 03:24:43;;;;;;;9.20;6.93;;;5.50;99.90;;;;;;5013230;28;20290;-90
2022/11/12 03:27:10;;;;;;;9.93;7.50;;;5.40;99.90;;;;;;5011928;28;20310;-90
2022/11/12 03:29:40;;;;;;;10.07;7.30;;;5.40;99.90;;;;;;5013779;28;20234;-90
2022/11/12 03:32:09;;;;;;;11.10;7.40;;;5.30;99.90;;;;;;5010446;28;20196;-89
2022/11/12 03:34:40;;;;;;;13.27;7.90;;;5.20;99.90;;;;;;5011076;28;20617;-90
2022/11/12 03:37:10;;;;;;;9.77;7.80;;;5.30;99.90;;;;;;5002490;28;20251;-89
2022/11/12 03:39:37;;;;;;;11.63;8.17;;;5.30;99.90;;;;;;5006848;28;20205;-90
2022/11/12 03:42:04;;;;;;;8.57;7.37;;;5.10;99.90;;;;;;5000494;28;20298;-90
2022/11/12 03:44:31;;;;;;;11.07;8.50;;;5.20;99.90;;;;;;5006117;28;20207;-89
2022/11/12 03:46:58;;;;;;;11.47;8.03;;;5.30;99.90;;;;;;5012319;28;20273;-89
2022/11/12 03:49:27;;;;;;;10.63;8.10;;;5.20;99.90;;;;;;5011318;28;20206;-89
2022/11/12 03:51:54;;;;;;;11.23;8.10;;;5.20;99.90;;;;;;5010625;28;20260;-91
2022/11/12 03:54:21;;;;;;;12.40;8.00;;;5.20;99.90;;;;;;5012030;28;20306;-90
2022/11/12 03:56:47;;;;;;;12.63;9.03;;;5.20;99.90;;;;;;5011070;28;20329;-90
2022/11/12 03:59:14;;;;;;;12.93;8.90;;;5.00;99.90;;;;;;5010282;28;20278;-89
2022/11/12 04:01:41;;;;;;;14.50;8.87;;;5.00;99.90;;;;;;5012678;28;20252;-89
2022/11/12 04:04:10;;;;;;;13.03;9.20;;;5.00;99.90;;;;;;5009497;28;20310;-90
2022/11/12 04:09:23;;;;;;;12.50;9.17;;;5.00;99.90;;;;;;5001879;28;20655;-90
2022/11/12 04:11:49;;;;;;;13.67;9.00;;;5.00;99.80;;;;;;5008639;28;20286;-90
2022/11/12 04:14:15;;;;;;;12.27;8.83;;;4.80;99.70;;;;;;5011627;28;20637;-90
2022/11/12 04:22:12;;;;;;;10.80;9.00;;;4.20;99.90;;;;;;5010433;28;20206;-89
2022/11/12 04:27:27;;;;;;;15.10;9.60;;;4.20;99.90;;;;;;5011690;28;20293;-90
2022/11/12 04:32:40;;;;;;;12.23;9.37;;;4.20;99.90;;;;;;5011952;28;20729;-89
2022/11/12 04:35:11;;;;;;;12.03;8.80;;;4.20;99.90;;;;;;5010597;28;20231;-90
2022/11/12 04:37:45;;;;;;;13.53;9.73;;;4.20;99.90;;;;;;5010980;28;20598;-91
2022/11/12 04:45:45;;;;;;;11.60;9.00;;;4.50;99.90;;;;;;5007832;28;20253;-90
2022/11/12 04:48:17;;;;;;;14.80;9.63;;;4.50;99.90;;;;;;5010387;28;20243;-90
2022/11/12 04:50:47;;;;;;;13.30;9.57;;;4.40;99.90;;;;;;5007254;28;21298;-89
2022/11/12 04:53:15;;;;;;;13.40;9.33;;;4.20;99.90;;;;;;5008658;28;20297;-90
2022/11/12 04:55:42;;;;;;;12.87;9.30;;;4.20;99.90;;;;;;5011215;28;20195;-90
2022/11/12 04:58:09;;;;;;;12.63;9.70;;;4.20;99.90;;;;;;5010487;28;20203;-90
2022/11/12 05:00:36;;;;;;;12.57;9.40;;;4.20;99.90;;;;;;5008366;28;20217;-89
2022/11/12 05:03:03;;;;;;;11.70;9.17;;;4.30;99.90;;;;;;5012048;28;20282;-90
2022/11/12 05:05:30;;;;;;;14.67;9.67;;;4.30;99.90;;;;;;5008720;28;20230;-89
2022/11/12 05:07:59;;;;;;;12.27;9.80;;;4.50;99.90;;;;;;5006291;28;20307;-91
2022/11/12 05:10:28;;;;;;;14.33;10.43;;;4.50;99.90;;;;;;5008168;28;20286;-90
2022/11/12 05:12:55;;;;;;;15.57;10.87;;;4.50;99.90;;;;;;5011102;28;20664;-91
2022/11/12 05:15:22;;;;;;;14.23;11.03;;;4.60;99.90;;;;;;5006629;28;20215;-90
2022/11/12 05:17:49;;;;;;;15.47;11.70;;;4.70;99.90;;;;;;5005484;28;20259;-91
2022/11/12 05:20:17;;;;;;;16.07;11.80;;;4.60;99.90;;;;;;5011223;28;20250;-92
2022/11/12 05:22:43;;;;;;;23.77;12.80;;;4.60;99.90;;;;;;5009715;28;20323;-90
2022/11/12 05:25:10;;;;;;;15.83;11.23;;;4.60;99.90;;;;;;5001193;28;20263;-90
2022/11/12 05:27:42;;;;;;;22.60;12.40;;;4.50;99.90;;;;;;5009252;28;20290;-90
2022/11/12 05:30:10;;;;;;;22.77;12.33;;;4.50;99.90;;;;;;5027239;28;20257;-90
2022/11/12 05:32:37;;;;;;;18.00;12.80;;;4.50;99.90;;;;;;5017780;28;20222;-91
2022/11/12 05:35:04;;;;;;;16.10;12.43;;;4.40;99.90;;;;;;5026517;28;20199;-91
2022/11/12 05:37:31;;;;;;;17.73;12.80;;;4.40;99.90;;;;;;5002261;28;20235;-90
2022/11/12 05:39:58;;;;;;;15.77;12.57;;;4.40;99.90;;;;;;5002574;28;20303;-89
2022/11/12 05:42:25;;;;;;;15.77;11.40;;;4.50;99.90;;;;;;5007976;28;20652;-90
2022/11/12 05:44:54;;;;;;;18.97;10.87;;;4.70;99.90;;;;;;5010620;28;20239;-90
2022/11/12 05:47:21;;;;;;;27.00;12.97;;;4.80;99.90;;;;;;5010180;28;20227;-90
2022/11/12 05:49:48;;;;;;;22.33;12.53;;;4.60;99.90;;;;;;5011068;28;20191;-90
2022/11/12 05:52:15;;;;;;;25.17;12.23;;;4.40;99.90;;;;;;5009898;28;21477;-90
2022/11/12 05:54:46;;;;;;;18.07;12.73;;;4.20;99.90;;;;;;5010133;28;20306;-93
2022/11/12 05:57:13;;;;;;;20.07;12.07;;;4.10;99.90;;;;;;5003553;28;20687;-90
2022/11/12 05:59:47;;;;;;;14.13;12.23;;;4.10;99.90;;;;;;5006753;28;20199;-91
2022/11/12 06:02:15;;;;;;;15.30;12.47;;;4.00;99.90;;;;;;5001646;28;20734;-90
2022/11/12 06:04:42;;;;;;;13.10;11.10;;;3.90;99.90;;;;;;5008981;28;20663;-90
2022/11/12 06:07:09;;;;;;;14.33;11.47;;;4.10;99.90;;;;;;5006616;28;20222;-89
2022/11/12 06:09:35;;;;;;;13.93;10.73;;;4.20;99.90;;;;;;5009764;28;20734;-90
2022/11/12 06:12:05;;;;;;;13.37;10.37;;;4.50;99.90;;;;;;5009540;28;20290;-90
2022/11/12 06:14:32;;;;;;;15.00;11.23;;;4.60;99.90;;;;;;4997657;28;20212;-90
2022/11/12 06:16:59;;;;;;;14.33;10.20;;;4.70;99.90;;;;;;5012994;28;20204;-91
2022/11/12 06:19:27;;;;;;;16.47;10.10;;;4.50;99.90;;;;;;5011312;28;20199;-90
2022/11/12 06:21:54;;;;;;;16.93;11.63;;;4.50;99.90;;;;;;4992104;28;20199;-90
2022/11/12 06:24:21;;;;;;;24.37;11.33;;;4.40;99.90;;;;;;5008792;28;20202;-89
2022/11/12 06:26:48;;;;;;;20.27;11.37;;;4.20;99.90;;;;;;5008295;28;20398;-90
2022/11/12 06:29:16;;;;;;;15.27;11.43;;;4.10;99.90;;;;;;5006394;28;20203;-89
2022/11/12 06:31:43;;;;;;;15.10;11.47;;;4.20;99.90;;;;;;5005367;28;20199;-89
2022/11/12 06:34:11;;;;;;;16.20;11.90;;;4.50;99.90;;;;;;5009746;28;20206;-90
2022/11/12 06:36:39;;;;;;;15.30;11.43;;;4.50;99.90;;;;;;5007575;28;20734;-89
2022/11/12 06:39:06;;;;;;;24.73;12.80;;;4.60;99.90;;;;;;5007561;28;20211;-89
2022/11/12 06:41:33;;;;;;;16.63;13.00;;;4.50;99.90;;;;;;5006066;28;20202;-89
2022/11/12 06:44:00;;;;;;;24.63;12.70;;;4.40;99.90;;;;;;5013221;28;20697;-89
2022/11/12 06:46:27;;;;;;;44.40;13.33;;;4.40;99.90;;;;;;5011806;28;20230;-90
2022/11/12 06:48:54;;;;;;;17.67;12.40;;;4.50;99.90;;;;;;5009102;28;20317;-89
2022/11/12 06:51:21;;;;;;;27.90;13.17;;;4.50;99.90;;;;;;5008743;28;20660;-89
2022/11/12 06:53:50;;;;;;;27.00;14.10;;;4.50;99.90;;;;;;5011714;28;20229;-89
2022/11/12 06:56:23;;;;;;;39.97;14.50;;;4.60;99.90;;;;;;5011966;28;20210;-89
2022/11/12 06:58:49;;;;;;;23.27;14.10;;;4.70;99.90;;;;;;5009534;28;20254;-91
2022/11/12 07:01:17;;;;;;;45.00;14.23;;;4.70;99.90;;;;;;5013529;28;20210;-88
2022/11/12 07:03:45;;;;;;;27.87;11.97;;;4.60;99.90;;;;;;5009145;28;20611;-89
2022/11/12 07:06:14;;;;;;;17.93;10.97;;;4.50;99.90;;;;;;5011535;28;20746;-89
2022/11/12 07:08:41;;;;;;;15.70;9.60;;;4.50;99.90;;;;;;5010918;28;20219;-89
2022/11/12 07:11:10;;;;;;;19.70;11.70;;;4.60;99.90;;;;;;5011570;28;20297;-90
2022/11/12 07:13:37;;;;;;;30.27;11.40;;;4.80;99.90;;;;;;5011545;28;20693;-89
2022/11/12 07:16:06;;;;;;;36.10;10.37;;;4.80;99.90;;;;;;5012516;28;20285;-90
2022/11/12 07:18:36;;;;;;;73.17;11.10;;;4.70;99.90;;;;;;5005585;28;20211;-91
2022/11/12 07:21:05;;;;;;;24.43;10.60;;;4.50;99.90;;;;;;5011264;28;20298;-89
2022/11/12 07:23:33;;;;;;;24.47;10.87;;;4.40;99.90;;;;;;5012076;28;20605;-89
2022/11/12 07:26:06;;;;;;;11.37;8.83;;;4.40;99.90;;;;;;5006415;28;20238;-90
2022/11/12 07:28:35;;;;;;;13.43;8.70;;;4.40;99.90;;;;;;5009128;28;20222;-89
2022/11/12 07:31:03;;;;;;;10.53;8.07;;;4.60;99.90;;;;;;5010403;28;20239;-89
2022/11/12 07:33:31;;;;;;;12.83;7.93;;;4.70;99.90;;;;;;5011579;28;20203;-89
2022/11/12 07:35:59;;;;;;;14.60;9.00;;;4.70;99.90;;;;;;5011160;28;20701;-88
2022/11/12 07:38:27;;;;;;;9.30;8.30;;;4.80;99.90;;;;;;5009714;28;20294;-90
2022/11/12 07:40:59;;;;;;;8.87;7.97;;;4.70;99.90;;;;;;5011430;28;20370;-89
2022/11/12 07:43:26;;;;;;;8.63;7.43;;;4.70;99.90;;;;;;5010394;28;20420;-89
2022/11/12 07:45:58;;;;;;;8.53;7.63;;;4.70;99.90;;;;;;5010928;28;20210;-90
2022/11/12 07:48:25;;;;;;;8.90;7.30;;;4.70;99.90;;;;;;5008373;28;20233;-89
2022/11/12 07:50:58;;;;;;;8.80;7.37;;;4.80;99.90;;;;;;5009916;28;20239;-89
2022/11/12 07:53:25;;;;;;;8.10;7.10;;;4.80;99.90;;;;;;5012909;28;20381;-89
2022/11/12 07:55:56;;;;;;;7.73;6.90;;;5.00;99.90;;;;;;5010741;28;20210;-89
2022/11/12 07:58:23;;;;;;;10.87;7.43;;;5.50;99.90;;;;;;5009534;28;20474;-90
2022/11/12 08:00:51;;;;;;;8.37;6.93;;;5.60;99.90;;;;;;5006859;28;20286;-89
2022/11/12 08:03:20;;;;;;;11.23;6.85;;;5.70;99.90;;;;;;5010524;28;20322;-91
2022/11/12 08:06:40;;;;;;;7.00;6.35;;;5.70;99.90;;;;;;5016766;28;20231;-91
2022/11/12 08:09:09;;;;;;;7.03;6.20;;;5.90;99.90;;;;;;5010538;28;20226;-95
2022/11/12 08:11:45;;;;;;;6.43;5.83;;;6.20;98.90;;;;;;5009269;28;20731;-94
2022/11/12 08:14:17;;;;;;;6.50;5.63;;;6.30;97.60;;;;;;5014814;28;20318;-92
2022/11/12 08:16:45;;;;;;;5.87;4.63;;;6.60;97.30;;;;;;5005460;28;20275;-93
2022/11/12 08:19:24;;;;;;;6.50;5.45;;;6.70;97.10;;;;;;5005875;28;20257;-91
2022/11/12 08:21:53;;;;;;;5.63;5.13;;;6.80;97.30;;;;;;5013728;28;20199;-92
2022/11/12 08:27:44;;;;;;;8.75;5.18;;;6.80;96.80;;;;;;5015986;28;20175;-91
2022/11/12 08:33:41;;;;;;;5.65;5.15;;;6.60;97.20;;;;;;5027898;28;20198;-90
2022/11/12 08:36:30;;;;;;;7.72;5.57;;;6.50;97.40;;;;;;5013358;28;20279;-90
2022/11/12 08:42:35;;;;;;;6.03;5.43;;;6.20;98.50;;;;;;5014675;28;20261;-89
2022/11/12 08:48:23;;;;;;;5.35;4.85;;;6.00;98.60;;;;;;5016303;28;20277;-91
2022/11/12 08:51:08;;;;;;;5.75;5.22;;;6.00;98.90;;;;;;5016114;28;20282;-94
2022/11/12 09:07:04;;;;;;;5.45;4.97;;;8.50;92.00;;;;;;5010527;28;20198;-89
2022/11/12 09:09:31;;;;;;;5.65;4.82;;;9.10;91.90;;;;;;5012316;28;20338;-89
2022/11/12 09:11:58;;;;;;;5.20;4.70;;;10.00;90.00;;;;;;5007530;28;20211;-91
2022/11/12 09:14:26;;;;;;;5.10;4.70;;;11.40;77.20;;;;;;5007873;28;20259;-89
2022/11/12 09:16:59;;;;;;;4.95;4.55;;;12.20;70.90;;;;;;5010817;28;20306;-91
2022/11/12 09:19:26;;;;;;;5.25;4.75;;;12.50;63.50;;;;;;5007015;28;20643;-91
2022/11/12 09:21:52;;;;;;;4.90;4.35;;;13.20;51.70;;;;;;5006139;28;20195;-91
2022/11/12 09:24:21;;;;;;;9.65;4.53;;;13.20;53.40;;;;;;5008933;28;20193;-89
2022/11/12 09:26:48;;;;;;;5.35;4.95;;;13.90;42.80;;;;;;5006161;28;20199;-88
2022/11/12 09:39:45;;;;;;;4.85;4.45;;;11.70;61.20;;;;;;5019689;28;20262;-90
2022/11/12 09:45:34;;;;;;;5.40;4.60;;;11.50;67.90;;;;;;5017861;28;20218;-90
2022/11/12 10:13:10;;;;;;;6.78;5.15;;;13.50;41.30;;;;;;5020710;28;20222;-91
2022/11/12 10:19:27;;;;;;;7.38;5.70;;;12.80;49.30;;;;;;5008368;28;20709;-90
2022/11/12 10:25:19;;;;;;;9.25;5.50;;;12.50;55.30;;;;;;5013266;28;20206;-90
2022/11/12 10:28:08;;;;;;;6.45;5.88;;;12.90;54.10;;;;;;5009786;28;20656;-91
2022/11/12 10:30:47;;;;;;;8.05;6.30;;;13.40;49.90;;;;;;5011523;28;20202;-92
2022/11/12 10:33:15;;;;;;;6.70;6.10;;;12.60;62.10;;;;;;5012953;28;20226;-93
2022/11/12 10:36:32;;;;;;;7.18;6.53;;;12.30;61.50;;;;;;5012266;28;20282;-93
2022/11/12 10:38:59;;;;;;;7.00;6.38;;;12.20;63.80;;;;;;4961995;28;20268;-93
2022/11/12 10:41:29;;;;;;;7.40;6.70;;;12.40;60.00;;;;;;5004734;28;20267;-91
2022/11/12 10:44:02;;;;;;;8.07;7.18;;;12.20;58.90;;;;;;5011458;28;20242;-92
2022/11/12 10:46:31;;;;;;;7.72;7.03;;;12.20;62.20;;;;;;5020259;28;20203;-93
2022/11/12 10:51:53;;;;;;;7.85;7.15;;;12.00;67.50;;;;;;5016718;28;20246;-93
2022/11/12 10:54:35;;;;;;;9.27;8.38;;;12.00;64.70;;;;;;5011271;28;20298;-91
2022/11/12 10:57:20;;;;;;;9.45;8.48;;;11.80;69.30;;;;;;5009250;28;20233;-94
2022/11/12 11:00:22;;;;;;;10.35;8.38;;;11.60;74.80;;;;;;5019851;28;20203;-91
2022/11/12 11:06:59;;;;;;;10.23;9.23;;;11.40;77.00;;;;;;5008732;28;20655;-93
2022/11/12 11:09:30;;;;;;;10.45;9.35;;;11.60;74.80;;;;;;5019453;28;20541;-92
2022/11/12 11:12:53;;;;;;;11.10;9.77;;;11.80;75.00;;;;;;5013738;28;20246;-93
2022/11/12 11:15:59;;;;;;;11.15;10.05;;;11.80;75.00;;;;;;5008021;28;20314;-93
2022/11/12 11:19:11;;;;;;;14.10;10.80;;;11.70;73.40;;;;;;5012089;28;20239;-92
2022/11/12 11:22:16;;;;;;;11.35;10.25;;;11.50;74.70;;;;;;5015773;28;20203;-93
2022/11/12 11:25:07;;;;;;;11.27;10.15;;;11.40;74.60;;;;;;5019474;28;20223;-92
2022/11/12 11:28:03;;;;;;;11.10;9.95;;;11.10;79.00;;;;;;4995650;28;20260;-93
2022/11/12 11:34:05;;;;;;;11.20;10.10;;;11.20;78.30;;;;;;5016232;28;20190;-95
2022/11/12 11:37:22;;;;;;;12.43;10.38;;;11.30;78.90;;;;;;5022875;28;20195;-95
2022/11/12 11:43:04;;;;;;;11.45;10.32;;;11.10;80.00;;;;;;5008540;28;20250;-94
2022/11/12 11:46:02;;;;;;;12.07;10.77;;;11.10;81.30;;;;;;5025649;28;20625;-91
2022/11/12 11:48:40;;;;;;;12.90;10.90;;;11.00;82.50;;;;;;5011816;28;20318;-92
2022/11/12 11:51:35;;;;;;;15.55;11.13;;;10.90;83.20;;;;;;5014676;28;20297;-92
2022/11/12 11:54:13;;;;;;;15.27;11.38;;;10.90;85.00;;;;;;5002619;28;20302;-91
2022/11/12 11:56:43;;;;;;;12.30;11.00;;;10.80;83.70;;;;;;5003378;28;20199;-91
2022/11/12 11:59:23;;;;;;;13.95;11.63;;;10.80;84.00;;;;;;5009275;28;20307;-92
2022/11/12 12:02:17;;;;;;;12.38;11.13;;;10.50;87.90;;;;;;5016932;28;20241;-92
2022/11/12 12:05:17;;;;;;;13.30;11.10;;;10.40;89.00;;;;;;5011875;28;20601;-91
2022/11/12 12:08:07;;;;;;;12.75;11.40;;;10.40;90.20;;;;;;5016386;28;20720;-90
2022/11/12 12:11:01;;;;;;;11.45;10.23;;;10.50;88.50;;;;;;5020115;28;20278;-91
2022/11/12 12:13:43;;;;;;;14.07;11.85;;;10.60;87.70;;;;;;5013717;28;20238;-89
2022/11/12 12:16:24;;;;;;;12.98;10.95;;;10.60;86.50;;;;;;5011660;28;20224;-92
2022/11/12 12:18:59;;;;;;;13.80;11.27;;;10.70;87.00;;;;;;4999546;28;20291;-92
2022/11/12 12:21:30;;;;;;;12.48;11.05;;;10.90;85.10;;;;;;5015524;28;20289;-91
2022/11/12 12:24:02;;;;;;;11.57;10.38;;;10.80;85.70;;;;;;4990437;28;20299;-92
2022/11/12 12:26:35;;;;;;;12.15;10.52;;;10.70;86.50;;;;;;5009362;28;20208;-90
2022/11/12 12:29:11;;;;;;;10.55;9.55;;;10.70;86.80;;;;;;5000768;28;20246;-91
2022/11/12 12:31:44;;;;;;;11.90;9.93;;;10.90;84.50;;;;;;4999928;28;20226;-91
2022/11/12 12:34:19;;;;;;;10.70;9.60;;;10.80;85.40;;;;;;5014256;28;20303;-91
2022/11/12 12:36:52;;;;;;;10.73;9.13;;;10.80;85.90;;;;;;5018040;28;20203;-92
2022/11/12 12:39:26;;;;;;;10.70;9.60;;;10.80;85.50;;;;;;5003769;28;20566;-90
2022/11/12 12:42:03;;;;;;;12.27;9.95;;;10.80;85.10;;;;;;4996953;28;20686;-91
2022/11/12 12:47:33;;;;;;;13.75;9.65;;;10.40;88.40;;;;;;5001792;28;20698;-91
2022/11/12 12:50:03;;;;;;;10.00;8.95;;;10.40;89.40;;;;;;4994879;28;20223;-91
2022/11/12 12:52:59;;;;;;;12.90;8.93;;;10.60;88.30;;;;;;5009828;28;20290;-92
2022/11/12 12:55:41;;;;;;;9.32;8.43;;;10.50;89.20;;;;;;4941895;28;20284;-87
2022/11/12 12:58:27;;;;;;;12.65;9.43;;;10.30;90.40;;;;;;4931580;28;20250;-87
2022/11/12 13:01:41;;;;;;;10.10;9.10;;;10.20;90.30;;;;;;4944086;28;20202;-89
2022/11/12 13:04:13;;;;;;;9.88;8.88;;;10.10;90.80;;;;;;4952112;28;20236;-91
2022/11/12 13:06:53;;;;;;;11.55;8.57;;;10.40;90.40;;;;;;4964364;28;20261;-94
2022/11/12 13:09:35;;;;;;;9.50;8.27;;;10.40;90.40;;;;;;4966135;28;20284;-94
2022/11/12 13:12:23;;;;;;;9.27;8.35;;;10.30;90.50;;;;;;4975645;28;20201;-92
2022/11/12 14:20:58;;;;;;;9.68;8.68;;;9.40;95.40;;;;;;5024005;28;20234;-89
2022/11/12 14:24:10;;;;;;;8.93;8.02;;;9.20;95.90;;;;;;5033752;28;20281;-91
2022/11/12 14:30:40;;;;;;;9.05;8.20;;;8.80;96.40;;;;;;5036258;28;20229;-92
2022/11/12 14:33:09;;;;;;;16.50;13.52;;;8.60;97.20;;;;;;5032509;28;20234;-92
2022/11/12 14:35:38;;;;;;;16.95;14.32;;;8.70;98.40;;;;;;5031977;28;20213;-91
2022/11/12 14:38:17;;;;;;;11.02;8.55;;;8.90;98.20;;;;;;5029878;28;20233;-92
2022/11/12 14:40:47;;;;;;;9.20;8.30;;;8.80;97.40;;;;;;5029756;28;21261;-92
2022/11/12 14:43:36;;;;;;;12.10;8.30;;;8.60;97.60;;;;;;5016458;28;20195;-92
2022/11/12 14:46:05;;;;;;;9.82;8.82;;;8.60;98.80;;;;;;5024869;28;20301;-93
2022/11/12 14:48:36;;;;;;;9.77;8.77;;;8.50;98.50;;;;;;5026033;28;20258;-94
2022/11/12 14:51:06;;;;;;;9.15;8.35;;;8.30;99.00;;;;;;5015513;28;20191;-93
2022/11/12 14:53:40;;;;;;;9.20;8.30;;;8.40;99.00;;;;;;5021951;28;21954;-94
2022/11/12 14:56:12;;;;;;;10.73;9.57;;;8.30;99.40;;;;;;5018448;28;20707;-93
2022/11/12 14:58:39;;;;;;;13.18;10.18;;;8.30;99.80;;;;;;5017839;28;20264;-93
2022/11/12 15:04:36;;;;;;;14.52;12.25;;;8.00;99.90;;;;;;5037771;28;20619;-94
2022/11/12 15:10:36;;;;;;;16.48;12.10;;;7.80;99.90;;;;;;5043912;28;20228;-89
2022/11/12 15:13:06;;;;;;;14.80;12.05;;;7.70;99.90;;;;;;5038163;28;20226;-89
2022/11/12 15:19:23;;;;;;;13.75;11.90;;;7.60;99.90;;;;;;5029234;28;20616;-93
2022/11/12 15:22:05;;;;;;;13.23;11.82;;;7.60;99.90;;;;;;5024998;28;20206;-89
2022/11/12 15:24:33;;;;;;;16.70;12.13;;;7.50;99.90;;;;;;5026773;28;20199;-88
2022/11/12 15:31:07;;;;;;;15.30;12.63;;;7.50;99.90;;;;;;5033071;28;20268;-90
2022/11/12 15:40:21;;;;;;;20.45;11.65;;;7.60;99.90;;;;;;5005741;28;20194;-87
2022/11/12 15:43:34;;;;;;;14.43;11.10;;;7.50;99.90;;;;;;5032041;28;20230;-88
2022/11/12 15:46:23;;;;;;;17.42;11.82;;;7.50;99.90;;;;;;5035216;28;20226;-88
2022/11/12 15:49:12;;;;;;;28.40;11.18;;;7.50;99.90;;;;;;5037518;28;20225;-89
2022/11/12 15:51:41;;;;;;;20.98;10.73;;;7.50;99.90;;;;;;5030613;28;20290;-87
2022/11/12 16:01:35;;;;;;;47.75;13.00;;;7.40;99.90;;;;;;5035291;28;20194;-87
2022/11/12 16:04:03;;;;;;;17.23;11.80;;;7.30;99.90;;;;;;5037633;28;20717;-87
2022/11/12 16:06:35;;;;;;;18.20;12.23;;;7.40;99.90;;;;;;5028109;28;20203;-88
2022/11/12 16:15:46;;;;;;;136.98;16.15;;;7.40;99.90;;;;;;5034664;28;20206;-87
2022/11/12 16:18:18;;;;;;;27.48;13.38;;;7.40;99.90;;;;;;5045108;28;20223;-88
2022/11/12 16:21:12;;;;;;;66.00;15.80;;;7.30;99.90;;;;;;5038640;28;20246;-89
2022/11/12 16:27:03;;;;;;;62.58;14.48;;;7.10;99.90;;;;;;5036176;28;20212;-89
2022/11/12 16:33:25;;;;;;;107.72;15.88;;;7.00;99.90;;;;;;5036161;28;20186;-89
2022/11/12 16:42:49;;;;;;;33.80;12.23;;;6.90;99.90;;;;;;5032114;28;20232;-85
2022/11/12 16:45:17;;;;;;;74.75;14.80;;;7.00;99.90;;;;;;5029950;28;20208;-85
2022/11/12 16:47:45;;;;;;;73.97;13.68;;;7.00;99.90;;;;;;5030652;28;20207;-86
2022/11/12 16:50:20;;;;;;;70.82;13.52;;;7.00;99.90;;;;;;5023995;28;20301;-86
2022/11/12 16:53:11;;;;;;;62.90;14.57;;;7.00;99.90;;;;;;5025904;28;20654;-85
2022/11/12 16:59:41;;;;;;;102.25;14.73;;;6.90;99.90;;;;;;5027721;28;20229;-85
2022/11/12 17:02:25;;;;;;;62.42;14.00;;;6.90;99.90;;;;;;5030916;28;20233;-86
2022/11/12 17:12:11;;;;;;;94.13;13.15;;;6.90;99.90;;;;;;5034160;28;20218;-87